Terminal Aerodrome Forecast
Issued by NWS Spokane, WA

Home | Current Version | Previous Version | Text Only | Print | Product List | Glossary On
Versions: 1 2 3 4 5 6 7 8 9 10 11 12 13 14 15 16 17 18 19 20 21 22 23 24 25 26 27 28 29 30 31 32 33 34 35 36 37 38 39
000
FTUS46 KOTX 291913 AAA
TAFGEG
TAF AMD
KGEG 291913Z 2919/3018 24025G35KT 1SM BLDU FU BKN100 OVC200
     FM292300 24018G28KT 2SM BLDU SCT250
     FM300100 24014G22KT 3SM BLDU SCT250
     FM300300 22011KT P6SM FEW080 SCT250
     FM301400 21018G24KT P6SM SCT035 BKN080=

USA.gov is the U.S. government's official web portal to all federal, state and local government web resources and services.